sensor_id;sensor_type;location;lat;lon;timestamp;P1;durP1;ratioP1;P2;durP2;ratioP2
23884;SDS011;12123;53.088;7.392;2022-12-15T00:01:58;52.92;;;22.75;;
23884;SDS011;12123;53.088;7.392;2022-12-15T00:04:44;56.10;;;22.85;;
23884;SDS011;12123;53.088;7.392;2022-12-15T00:07:30;51.50;;;21.20;;
23884;SDS011;12123;53.088;7.392;2022-12-15T00:10:17;56.42;;;23.23;;
23884;SDS011;12123;53.088;7.392;2022-12-15T00:13:08;66.85;;;24.30;;
23884;SDS011;12123;53.088;7.392;2022-12-15T00:15:55;57.22;;;21.95;;
23884;SDS011;12123;53.088;7.392;2022-12-15T00:18:42;61.47;;;24.05;;
23884;SDS011;12123;53.088;7.392;2022-12-15T00:21:28;58.70;;;22.92;;
23884;SDS011;12123;53.088;7.392;2022-12-15T00:24:13;61.13;;;23.00;;
23884;SDS011;12123;53.088;7.392;2022-12-15T00:26:59;58.60;;;24.10;;
23884;SDS011;12123;53.088;7.392;2022-12-15T00:29:46;59.85;;;23.27;;
23884;SDS011;12123;53.088;7.392;2022-12-15T00:32:32;54.92;;;21.65;;
23884;SDS011;12123;53.088;7.392;2022-12-15T00:35:18;53.25;;;23.35;;
23884;SDS011;12123;53.088;7.392;2022-12-15T00:38:08;57.72;;;23.73;;
23884;SDS011;12123;53.088;7.392;2022-12-15T00:40:54;57.83;;;23.90;;
23884;SDS011;12123;53.088;7.392;2022-12-15T00:43:28;55.65;;;22.80;;
23884;SDS011;12123;53.088;7.392;2022-12-15T00:45:57;47.60;;;21.30;;
23884;SDS011;12123;53.088;7.392;2022-12-15T00:48:44;59.15;;;22.58;;
23884;SDS011;12123;53.088;7.392;2022-12-15T00:51:11;49.58;;;21.77;;
23884;SDS011;12123;53.088;7.392;2022-12-15T00:53:39;53.55;;;22.77;;
23884;SDS011;12123;53.088;7.392;2022-12-15T00:56:25;51.17;;;21.38;;
23884;SDS011;12123;53.088;7.392;2022-12-15T00:59:11;52.33;;;22.13;;
23884;SDS011;12123;53.088;7.392;2022-12-15T01:01:57;53.40;;;22.42;;
23884;SDS011;12123;53.088;7.392;2022-12-15T01:04:43;47.35;;;22.27;;
23884;SDS011;12123;53.088;7.392;2022-12-15T01:07:29;57.17;;;23.13;;
23884;SDS011;12123;53.088;7.392;2022-12-15T01:10:16;48.35;;;21.65;;
23884;SDS011;12123;53.088;7.392;2022-12-15T01:13:02;49.35;;;21.42;;
23884;SDS011;12123;53.088;7.392;2022-12-15T01:15:48;52.08;;;21.65;;
23884;SDS011;12123;53.088;7.392;2022-12-15T01:18:34;55.65;;;20.98;;
23884;SDS011;12123;53.088;7.392;2022-12-15T01:21:20;54.35;;;22.45;;
23884;SDS011;12123;53.088;7.392;2022-12-15T01:23:50;52.25;;;21.83;;
23884;SDS011;12123;53.088;7.392;2022-12-15T01:26:17;51.83;;;22.75;;
23884;SDS011;12123;53.088;7.392;2022-12-15T01:28:45;47.50;;;19.58;;
23884;SDS011;12123;53.088;7.392;2022-12-15T01:31:12;53.10;;;22.63;;
23884;SDS011;12123;53.088;7.392;2022-12-15T01:33:40;59.20;;;21.02;;
23884;SDS011;12123;53.088;7.392;2022-12-15T01:36:09;51.83;;;21.50;;
23884;SDS011;12123;53.088;7.392;2022-12-15T01:38:36;56.00;;;21.98;;
23884;SDS011;12123;53.088;7.392;2022-12-15T01:41:05;55.47;;;23.45;;
23884;SDS011;12123;53.088;7.392;2022-12-15T01:43:34;55.60;;;22.10;;
23884;SDS011;12123;53.088;7.392;2022-12-15T01:46:09;56.95;;;22.65;;
23884;SDS011;12123;53.088;7.392;2022-12-15T01:48:39;53.03;;;23.00;;
23884;SDS011;12123;53.088;7.392;2022-12-15T01:51:10;49.88;;;22.13;;
23884;SDS011;12123;53.088;7.392;2022-12-15T01:53:49;54.28;;;22.13;;
23884;SDS011;12123;53.088;7.392;2022-12-15T01:56:20;53.25;;;22.08;;
23884;SDS011;12123;53.088;7.392;2022-12-15T01:58:48;55.90;;;23.60;;
23884;SDS011;12123;53.088;7.392;2022-12-15T02:01:17;57.20;;;24.25;;
23884;SDS011;12123;53.088;7.392;2022-12-15T02:03:44;50.85;;;22.67;;
23884;SDS011;12123;53.088;7.392;2022-12-15T02:06:13;55.70;;;23.23;;
23884;SDS011;12123;53.088;7.392;2022-12-15T02:08:41;53.67;;;23.05;;
23884;SDS011;12123;53.088;7.392;2022-12-15T02:14:07;54.92;;;22.42;;
23884;SDS011;12123;53.088;7.392;2022-12-15T02:21:52;49.70;;;22.83;;
23884;SDS011;12123;53.088;7.392;2022-12-15T02:24:37;48.20;;;22.20;;
23884;SDS011;12123;53.088;7.392;2022-12-15T02:27:20;51.05;;;21.77;;
23884;SDS011;12123;53.088;7.392;2022-12-15T02:32:43;54.42;;;21.48;;
23884;SDS011;12123;53.088;7.392;2022-12-15T02:35:15;50.77;;;21.70;;
23884;SDS011;12123;53.088;7.392;2022-12-15T02:37:44;53.20;;;22.48;;
23884;SDS011;12123;53.088;7.392;2022-12-15T02:40:15;52.97;;;22.15;;
23884;SDS011;12123;53.088;7.392;2022-12-15T02:42:43;65.20;;;25.90;;
23884;SDS011;12123;53.088;7.392;2022-12-15T02:45:12;54.35;;;22.83;;
23884;SDS011;12123;53.088;7.392;2022-12-15T02:50:25;58.13;;;22.58;;
23884;SDS011;12123;53.088;7.392;2022-12-15T03:01:05;52.03;;;22.95;;
23884;SDS011;12123;53.088;7.392;2022-12-15T03:03:35;49.67;;;22.57;;
23884;SDS011;12123;53.088;7.392;2022-12-15T03:06:03;46.13;;;20.38;;
23884;SDS011;12123;53.088;7.392;2022-12-15T03:08:31;55.65;;;21.67;;
23884;SDS011;12123;53.088;7.392;2022-12-15T03:10:58;55.47;;;22.67;;
23884;SDS011;12123;53.088;7.392;2022-12-15T03:13:25;45.67;;;21.45;;
23884;SDS011;12123;53.088;7.392;2022-12-15T03:15:53;51.60;;;21.75;;
23884;SDS011;12123;53.088;7.392;2022-12-15T03:18:20;46.83;;;21.98;;
23884;SDS011;12123;53.088;7.392;2022-12-15T03:20:48;52.67;;;21.25;;
23884;SDS011;12123;53.088;7.392;2022-12-15T03:23:15;56.38;;;20.92;;
23884;SDS011;12123;53.088;7.392;2022-12-15T03:25:43;54.10;;;22.30;;
23884;SDS011;12123;53.088;7.392;2022-12-15T03:28:15;53.15;;;22.13;;
23884;SDS011;12123;53.088;7.392;2022-12-15T03:30:43;53.95;;;22.20;;
23884;SDS011;12123;53.088;7.392;2022-12-15T03:33:15;43.72;;;21.10;;
23884;SDS011;12123;53.088;7.392;2022-12-15T03:35:42;52.72;;;21.90;;
23884;SDS011;12123;53.088;7.392;2022-12-15T03:38:10;49.20;;;22.10;;
23884;SDS011;12123;53.088;7.392;2022-12-15T03:40:37;47.83;;;21.25;;
23884;SDS011;12123;53.088;7.392;2022-12-15T03:43:04;49.40;;;21.13;;
23884;SDS011;12123;53.088;7.392;2022-12-15T03:45:31;47.03;;;20.90;;
23884;SDS011;12123;53.088;7.392;2022-12-15T03:47:59;47.85;;;20.70;;
23884;SDS011;12123;53.088;7.392;2022-12-15T03:50:26;44.35;;;21.05;;
23884;SDS011;12123;53.088;7.392;2022-12-15T03:52:55;50.25;;;21.90;;
23884;SDS011;12123;53.088;7.392;2022-12-15T03:55:23;47.22;;;20.77;;
23884;SDS011;12123;53.088;7.392;2022-12-15T03:57:51;49.22;;;20.58;;
23884;SDS011;12123;53.088;7.392;2022-12-15T04:00:19;51.42;;;22.00;;
23884;SDS011;12123;53.088;7.392;2022-12-15T04:02:47;49.35;;;21.45;;
23884;SDS011;12123;53.088;7.392;2022-12-15T04:05:23;46.30;;;20.80;;
23884;SDS011;12123;53.088;7.392;2022-12-15T04:07:54;42.90;;;18.90;;
23884;SDS011;12123;53.088;7.392;2022-12-15T04:10:22;46.95;;;21.50;;
23884;SDS011;12123;53.088;7.392;2022-12-15T04:13:08;40.80;;;19.00;;
23884;SDS011;12123;53.088;7.392;2022-12-15T04:15:37;49.15;;;20.42;;
23884;SDS011;12123;53.088;7.392;2022-12-15T04:18:05;48.10;;;21.13;;
23884;SDS011;12123;53.088;7.392;2022-12-15T04:20:35;50.13;;;20.52;;
23884;SDS011;12123;53.088;7.392;2022-12-15T04:23:03;41.75;;;19.70;;
23884;SDS011;12123;53.088;7.392;2022-12-15T04:25:33;43.78;;;20.15;;
23884;SDS011;12123;53.088;7.392;2022-12-15T04:28:19;45.83;;;19.23;;
23884;SDS011;12123;53.088;7.392;2022-12-15T04:31:09;46.35;;;20.10;;
23884;SDS011;12123;53.088;7.392;2022-12-15T04:34:00;40.42;;;17.98;;
23884;SDS011;12123;53.088;7.392;2022-12-15T04:36:47;43.83;;;20.95;;
23884;SDS011;12123;53.088;7.392;2022-12-15T04:39:35;45.88;;;21.05;;
23884;SDS011;12123;53.088;7.392;2022-12-15T04:42:21;40.70;;;20.75;;
23884;SDS011;12123;53.088;7.392;2022-12-15T04:45:08;46.90;;;21.15;;
23884;SDS011;12123;53.088;7.392;2022-12-15T04:47:56;46.70;;;19.23;;
23884;SDS011;12123;53.088;7.392;2022-12-15T04:50:42;43.17;;;19.95;;
23884;SDS011;12123;53.088;7.392;2022-12-15T04:53:28;43.58;;;19.27;;
23884;SDS011;12123;53.088;7.392;2022-12-15T04:56:14;46.33;;;19.00;;
23884;SDS011;12123;53.088;7.392;2022-12-15T04:59:00;38.08;;;19.25;;
23884;SDS011;12123;53.088;7.392;2022-12-15T05:01:46;38.83;;;19.02;;
23884;SDS011;12123;53.088;7.392;2022-12-15T05:04:32;45.97;;;18.75;;
23884;SDS011;12123;53.088;7.392;2022-12-15T05:07:18;40.58;;;19.55;;
23884;SDS011;12123;53.088;7.392;2022-12-15T05:10:04;42.03;;;18.42;;
23884;SDS011;12123;53.088;7.392;2022-12-15T05:12:51;40.88;;;20.25;;
23884;SDS011;12123;53.088;7.392;2022-12-15T05:15:37;43.35;;;18.92;;
23884;SDS011;12123;53.088;7.392;2022-12-15T05:18:23;42.85;;;19.73;;
23884;SDS011;12123;53.088;7.392;2022-12-15T05:21:09;41.63;;;20.10;;
23884;SDS011;12123;53.088;7.392;2022-12-15T05:23:56;46.15;;;18.83;;
23884;SDS011;12123;53.088;7.392;2022-12-15T05:26:42;41.72;;;18.77;;
23884;SDS011;12123;53.088;7.392;2022-12-15T05:29:28;44.85;;;19.95;;
23884;SDS011;12123;53.088;7.392;2022-12-15T05:32:14;47.30;;;19.95;;
23884;SDS011;12123;53.088;7.392;2022-12-15T05:34:41;44.17;;;20.30;;
23884;SDS011;12123;53.088;7.392;2022-12-15T05:37:08;42.47;;;19.15;;
23884;SDS011;12123;53.088;7.392;2022-12-15T05:39:36;41.17;;;20.05;;
23884;SDS011;12123;53.088;7.392;2022-12-15T05:42:03;41.65;;;19.90;;
23884;SDS011;12123;53.088;7.392;2022-12-15T05:44:30;36.75;;;18.33;;
23884;SDS011;12123;53.088;7.392;2022-12-15T05:46:57;40.05;;;18.00;;
23884;SDS011;12123;53.088;7.392;2022-12-15T05:49:25;34.55;;;18.05;;
23884;SDS011;12123;53.088;7.392;2022-12-15T05:51:52;41.80;;;19.48;;
23884;SDS011;12123;53.088;7.392;2022-12-15T05:54:20;39.20;;;18.45;;
23884;SDS011;12123;53.088;7.392;2022-12-15T05:56:47;44.75;;;19.58;;
23884;SDS011;12123;53.088;7.392;2022-12-15T05:59:15;39.90;;;18.25;;
23884;SDS011;12123;53.088;7.392;2022-12-15T06:01:43;44.53;;;20.13;;
23884;SDS011;12123;53.088;7.392;2022-12-15T06:04:10;52.00;;;19.92;;
23884;SDS011;12123;53.088;7.392;2022-12-15T06:06:39;46.97;;;19.63;;
23884;SDS011;12123;53.088;7.392;2022-12-15T06:09:06;43.53;;;18.83;;
23884;SDS011;12123;53.088;7.392;2022-12-15T06:11:33;44.33;;;19.85;;
23884;SDS011;12123;53.088;7.392;2022-12-15T06:14:00;37.58;;;19.35;;
23884;SDS011;12123;53.088;7.392;2022-12-15T06:16:28;46.38;;;18.63;;
23884;SDS011;12123;53.088;7.392;2022-12-15T06:18:56;38.90;;;18.50;;
23884;SDS011;12123;53.088;7.392;2022-12-15T06:21:25;44.08;;;18.00;;
23884;SDS011;12123;53.088;7.392;2022-12-15T06:23:54;39.67;;;18.75;;
23884;SDS011;12123;53.088;7.392;2022-12-15T06:26:22;45.08;;;19.55;;
23884;SDS011;12123;53.088;7.392;2022-12-15T06:28:50;42.88;;;17.38;;
23884;SDS011;12123;53.088;7.392;2022-12-15T06:31:18;37.53;;;17.25;;
23884;SDS011;12123;53.088;7.392;2022-12-15T06:33:54;42.15;;;17.77;;
23884;SDS011;12123;53.088;7.392;2022-12-15T06:36:27;44.42;;;19.45;;
23884;SDS011;12123;53.088;7.392;2022-12-15T06:38:59;40.08;;;18.45;;
23884;SDS011;12123;53.088;7.392;2022-12-15T06:41:27;42.28;;;19.27;;
23884;SDS011;12123;53.088;7.392;2022-12-15T06:43:56;38.88;;;18.23;;
23884;SDS011;12123;53.088;7.392;2022-12-15T06:46:23;47.95;;;19.75;;
23884;SDS011;12123;53.088;7.392;2022-12-15T06:48:51;39.78;;;17.83;;
23884;SDS011;12123;53.088;7.392;2022-12-15T06:51:18;36.90;;;17.35;;
23884;SDS011;12123;53.088;7.392;2022-12-15T06:53:46;37.17;;;17.45;;
23884;SDS011;12123;53.088;7.392;2022-12-15T06:58:53;35.63;;;16.98;;
23884;SDS011;12123;53.088;7.392;2022-12-15T07:01:21;40.92;;;18.95;;
23884;SDS011;12123;53.088;7.392;2022-12-15T07:03:50;41.83;;;18.35;;
23884;SDS011;12123;53.088;7.392;2022-12-15T07:06:18;43.67;;;18.05;;
23884;SDS011;12123;53.088;7.392;2022-12-15T07:08:49;37.22;;;17.30;;
23884;SDS011;12123;53.088;7.392;2022-12-15T07:11:22;36.05;;;17.55;;
23884;SDS011;12123;53.088;7.392;2022-12-15T07:13:52;45.85;;;17.60;;
23884;SDS011;12123;53.088;7.392;2022-12-15T07:16:20;37.22;;;17.20;;
23884;SDS011;12123;53.088;7.392;2022-12-15T07:18:48;41.78;;;19.30;;
23884;SDS011;12123;53.088;7.392;2022-12-15T07:21:15;40.17;;;17.55;;
23884;SDS011;12123;53.088;7.392;2022-12-15T07:23:43;39.97;;;17.55;;
23884;SDS011;12123;53.088;7.392;2022-12-15T07:26:21;39.78;;;17.83;;
23884;SDS011;12123;53.088;7.392;2022-12-15T07:28:48;31.25;;;14.95;;
23884;SDS011;12123;53.088;7.392;2022-12-15T07:31:16;41.33;;;17.63;;
23884;SDS011;12123;53.088;7.392;2022-12-15T07:33:43;33.28;;;17.58;;
23884;SDS011;12123;53.088;7.392;2022-12-15T07:36:10;41.15;;;18.10;;
23884;SDS011;12123;53.088;7.392;2022-12-15T07:38:38;34.10;;;17.27;;
23884;SDS011;12123;53.088;7.392;2022-12-15T07:41:05;34.55;;;16.95;;
23884;SDS011;12123;53.088;7.392;2022-12-15T07:43:33;45.95;;;17.27;;
23884;SDS011;12123;53.088;7.392;2022-12-15T07:46:02;39.13;;;17.67;;
23884;SDS011;12123;53.088;7.392;2022-12-15T07:48:30;36.15;;;17.20;;
23884;SDS011;12123;53.088;7.392;2022-12-15T07:50:57;37.75;;;18.30;;
23884;SDS011;12123;53.088;7.392;2022-12-15T07:53:35;37.35;;;17.92;;
23884;SDS011;12123;53.088;7.392;2022-12-15T07:56:03;41.80;;;18.38;;
23884;SDS011;12123;53.088;7.392;2022-12-15T07:58:35;43.25;;;17.20;;
23884;SDS011;12123;53.088;7.392;2022-12-15T08:01:04;40.35;;;17.38;;
23884;SDS011;12123;53.088;7.392;2022-12-15T08:03:31;32.40;;;17.63;;
23884;SDS011;12123;53.088;7.392;2022-12-15T08:06:10;36.00;;;16.90;;
23884;SDS011;12123;53.088;7.392;2022-12-15T08:08:38;38.47;;;16.67;;
23884;SDS011;12123;53.088;7.392;2022-12-15T08:11:06;31.90;;;16.70;;
23884;SDS011;12123;53.088;7.392;2022-12-15T08:13:34;39.00;;;17.75;;
23884;SDS011;12123;53.088;7.392;2022-12-15T08:16:21;33.25;;;16.55;;
23884;SDS011;12123;53.088;7.392;2022-12-15T08:18:49;36.60;;;16.15;;
23884;SDS011;12123;53.088;7.392;2022-12-15T08:21:16;33.63;;;16.23;;
23884;SDS011;12123;53.088;7.392;2022-12-15T08:23:43;38.67;;;17.75;;
23884;SDS011;12123;53.088;7.392;2022-12-15T08:26:11;44.83;;;17.50;;
23884;SDS011;12123;53.088;7.392;2022-12-15T08:28:39;34.40;;;17.52;;
23884;SDS011;12123;53.088;7.392;2022-12-15T08:31:10;42.13;;;16.48;;
23884;SDS011;12123;53.088;7.392;2022-12-15T08:33:38;42.10;;;16.67;;
23884;SDS011;12123;53.088;7.392;2022-12-15T08:36:06;36.25;;;17.27;;
23884;SDS011;12123;53.088;7.392;2022-12-15T08:38:34;34.67;;;16.95;;
23884;SDS011;12123;53.088;7.392;2022-12-15T08:41:07;32.88;;;16.58;;
23884;SDS011;12123;53.088;7.392;2022-12-15T08:43:35;33.70;;;16.88;;
23884;SDS011;12123;53.088;7.392;2022-12-15T08:46:11;31.83;;;16.15;;
23884;SDS011;12123;53.088;7.392;2022-12-15T08:48:38;36.85;;;16.23;;
23884;SDS011;12123;53.088;7.392;2022-12-15T08:51:05;34.70;;;17.58;;
23884;SDS011;12123;53.088;7.392;2022-12-15T08:53:33;36.17;;;17.95;;
23884;SDS011;12123;53.088;7.392;2022-12-15T08:56:04;36.35;;;17.30;;
23884;SDS011;12123;53.088;7.392;2022-12-15T08:58:31;38.70;;;17.15;;
23884;SDS011;12123;53.088;7.392;2022-12-15T09:01:00;33.63;;;16.42;;
23884;SDS011;12123;53.088;7.392;2022-12-15T09:03:28;39.97;;;16.75;;
23884;SDS011;12123;53.088;7.392;2022-12-15T09:05:58;33.58;;;17.90;;
23884;SDS011;12123;53.088;7.392;2022-12-15T09:08:27;34.50;;;17.35;;
23884;SDS011;12123;53.088;7.392;2022-12-15T09:10:56;37.75;;;17.90;;
23884;SDS011;12123;53.088;7.392;2022-12-15T09:13:24;40.03;;;17.42;;
23884;SDS011;12123;53.088;7.392;2022-12-15T09:15:55;31.75;;;16.20;;
23884;SDS011;12123;53.088;7.392;2022-12-15T09:18:35;34.03;;;17.48;;
23884;SDS011;12123;53.088;7.392;2022-12-15T09:21:06;32.70;;;16.20;;
23884;SDS011;12123;53.088;7.392;2022-12-15T09:23:34;38.75;;;18.48;;
23884;SDS011;12123;53.088;7.392;2022-12-15T09:26:06;40.22;;;18.45;;
23884;SDS011;12123;53.088;7.392;2022-12-15T09:28:33;38.95;;;17.08;;
23884;SDS011;12123;53.088;7.392;2022-12-15T09:31:04;34.10;;;17.17;;
23884;SDS011;12123;53.088;7.392;2022-12-15T09:33:32;37.97;;;17.90;;
23884;SDS011;12123;53.088;7.392;2022-12-15T09:36:00;33.40;;;17.25;;
23884;SDS011;12123;53.088;7.392;2022-12-15T09:38:29;32.65;;;17.48;;
23884;SDS011;12123;53.088;7.392;2022-12-15T09:40:56;36.85;;;17.95;;
23884;SDS011;12123;53.088;7.392;2022-12-15T09:43:24;38.67;;;18.23;;
23884;SDS011;12123;53.088;7.392;2022-12-15T09:46:13;35.35;;;17.90;;
23884;SDS011;12123;53.088;7.392;2022-12-15T09:48:43;34.08;;;16.45;;
23884;SDS011;12123;53.088;7.392;2022-12-15T09:51:11;28.05;;;16.52;;
23884;SDS011;12123;53.088;7.392;2022-12-15T09:53:40;33.85;;;17.15;;
23884;SDS011;12123;53.088;7.392;2022-12-15T09:56:22;30.60;;;16.08;;
23884;SDS011;12123;53.088;7.392;2022-12-15T09:59:02;33.17;;;16.65;;
23884;SDS011;12123;53.088;7.392;2022-12-15T10:01:43;33.95;;;16.42;;
23884;SDS011;12123;53.088;7.392;2022-12-15T10:06:45;31.05;;;15.27;;
23884;SDS011;12123;53.088;7.392;2022-12-15T10:09:20;26.90;;;14.18;;
23884;SDS011;12123;53.088;7.392;2022-12-15T10:11:49;26.10;;;14.32;;
23884;SDS011;12123;53.088;7.392;2022-12-15T10:14:31;33.35;;;14.98;;
23884;SDS011;12123;53.088;7.392;2022-12-15T10:17:04;25.92;;;14.70;;
23884;SDS011;12123;53.088;7.392;2022-12-15T10:19:38;32.50;;;15.07;;
23884;SDS011;12123;53.088;7.392;2022-12-15T10:22:13;26.95;;;14.20;;
23884;SDS011;12123;53.088;7.392;2022-12-15T10:27:50;35.28;;;15.20;;
23884;SDS011;12123;53.088;7.392;2022-12-15T10:30:20;29.67;;;14.32;;
23884;SDS011;12123;53.088;7.392;2022-12-15T10:32:49;32.72;;;14.95;;
23884;SDS011;12123;53.088;7.392;2022-12-15T10:35:24;31.70;;;14.45;;
23884;SDS011;12123;53.088;7.392;2022-12-15T10:37:58;27.05;;;14.70;;
23884;SDS011;12123;53.088;7.392;2022-12-15T10:43:13;28.05;;;13.85;;
23884;SDS011;12123;53.088;7.392;2022-12-15T10:45:41;26.33;;;12.90;;
23884;SDS011;12123;53.088;7.392;2022-12-15T10:48:16;24.45;;;12.68;;
23884;SDS011;12123;53.088;7.392;2022-12-15T10:50:44;25.00;;;13.18;;
23884;SDS011;12123;53.088;7.392;2022-12-15T10:56:24;25.25;;;12.85;;
23884;SDS011;12123;53.088;7.392;2022-12-15T10:59:22;25.60;;;12.13;;
23884;SDS011;12123;53.088;7.392;2022-12-15T11:01:50;26.27;;;13.70;;
23884;SDS011;12123;53.088;7.392;2022-12-15T11:06:54;23.42;;;12.25;;
23884;SDS011;12123;53.088;7.392;2022-12-15T11:09:32;30.05;;;13.13;;
23884;SDS011;12123;53.088;7.392;2022-12-15T11:12:00;21.38;;;12.48;;
23884;SDS011;12123;53.088;7.392;2022-12-15T11:14:47;25.33;;;12.35;;
23884;SDS011;12123;53.088;7.392;2022-12-15T11:17:17;22.77;;;12.48;;
23884;SDS011;12123;53.088;7.392;2022-12-15T11:22:29;21.10;;;11.48;;
23884;SDS011;12123;53.088;7.392;2022-12-15T11:27:36;22.52;;;11.45;;
23884;SDS011;12123;53.088;7.392;2022-12-15T11:30:17;24.98;;;12.25;;
23884;SDS011;12123;53.088;7.392;2022-12-15T11:32:46;25.17;;;13.40;;
23884;SDS011;12123;53.088;7.392;2022-12-15T11:35:15;23.02;;;10.35;;
23884;SDS011;12123;53.088;7.392;2022-12-15T11:40:29;18.75;;;10.88;;
23884;SDS011;12123;53.088;7.392;2022-12-15T11:45:43;19.17;;;11.00;;
23884;SDS011;12123;53.088;7.392;2022-12-15T11:48:16;23.95;;;10.70;;
23884;SDS011;12123;53.088;7.392;2022-12-15T11:53:17;22.10;;;11.10;;
23884;SDS011;12123;53.088;7.392;2022-12-15T11:56:04;25.55;;;10.20;;
23884;SDS011;12123;53.088;7.392;2022-12-15T12:01:11;21.27;;;9.82;;
23884;SDS011;12123;53.088;7.392;2022-12-15T12:03:43;26.00;;;11.48;;
23884;SDS011;12123;53.088;7.392;2022-12-15T12:06:15;17.20;;;9.70;;
23884;SDS011;12123;53.088;7.392;2022-12-15T12:08:59;21.95;;;10.85;;
23884;SDS011;12123;53.088;7.392;2022-12-15T12:11:37;18.58;;;10.80;;
23884;SDS011;12123;53.088;7.392;2022-12-15T12:14:15;18.70;;;9.60;;
23884;SDS011;12123;53.088;7.392;2022-12-15T12:17:02;16.92;;;9.35;;
23884;SDS011;12123;53.088;7.392;2022-12-15T12:20:07;17.35;;;9.15;;
23884;SDS011;12123;53.088;7.392;2022-12-15T12:24:57;15.57;;;10.10;;
23884;SDS011;12123;53.088;7.392;2022-12-15T12:27:34;16.75;;;9.27;;
23884;SDS011;12123;53.088;7.392;2022-12-15T12:30:05;18.73;;;10.13;;
23884;SDS011;12123;53.088;7.392;2022-12-15T12:32:56;21.27;;;9.23;;
23884;SDS011;12123;53.088;7.392;2022-12-15T12:43:18;16.30;;;9.30;;
23884;SDS011;12123;53.088;7.392;2022-12-15T12:45:50;19.67;;;9.75;;
23884;SDS011;12123;53.088;7.392;2022-12-15T12:50:47;18.90;;;9.52;;
23884;SDS011;12123;53.088;7.392;2022-12-15T12:53:23;17.52;;;9.43;;
23884;SDS011;12123;53.088;7.392;2022-12-15T12:55:51;21.10;;;8.68;;
23884;SDS011;12123;53.088;7.392;2022-12-15T13:01:17;18.17;;;9.13;;
23884;SDS011;12123;53.088;7.392;2022-12-15T13:03:45;19.40;;;10.35;;
23884;SDS011;12123;53.088;7.392;2022-12-15T13:14:14;19.80;;;10.23;;
23884;SDS011;12123;53.088;7.392;2022-12-15T13:16:54;23.70;;;11.20;;
23884;SDS011;12123;53.088;7.392;2022-12-15T13:22:34;23.27;;;11.02;;
23884;SDS011;12123;53.088;7.392;2022-12-15T13:25:25;25.58;;;12.48;;
23884;SDS011;12123;53.088;7.392;2022-12-15T13:27:50;20.70;;;11.50;;
23884;SDS011;12123;53.088;7.392;2022-12-15T13:30:17;21.38;;;11.35;;
23884;SDS011;12123;53.088;7.392;2022-12-15T13:32:45;21.52;;;11.63;;
23884;SDS011;12123;53.088;7.392;2022-12-15T13:35:20;25.55;;;12.48;;
23884;SDS011;12123;53.088;7.392;2022-12-15T13:43:01;22.88;;;11.40;;
23884;SDS011;12123;53.088;7.392;2022-12-15T13:45:50;20.98;;;12.20;;
23884;SDS011;12123;53.088;7.392;2022-12-15T13:48:21;22.08;;;12.43;;
23884;SDS011;12123;53.088;7.392;2022-12-15T13:50:52;27.90;;;13.55;;
23884;SDS011;12123;53.088;7.392;2022-12-15T13:53:22;26.27;;;12.90;;
23884;SDS011;12123;53.088;7.392;2022-12-15T13:55:52;21.48;;;11.90;;
23884;SDS011;12123;53.088;7.392;2022-12-15T13:58:20;27.15;;;13.50;;
23884;SDS011;12123;53.088;7.392;2022-12-15T14:00:53;24.35;;;13.27;;
23884;SDS011;12123;53.088;7.392;2022-12-15T14:03:21;28.63;;;13.20;;
23884;SDS011;12123;53.088;7.392;2022-12-15T14:05:52;24.40;;;13.65;;
23884;SDS011;12123;53.088;7.392;2022-12-15T14:08:20;34.20;;;15.70;;
23884;SDS011;12123;53.088;7.392;2022-12-15T14:10:49;28.08;;;14.25;;
23884;SDS011;12123;53.088;7.392;2022-12-15T14:13:32;38.05;;;18.48;;
23884;SDS011;12123;53.088;7.392;2022-12-15T14:18:40;31.92;;;15.95;;
23884;SDS011;12123;53.088;7.392;2022-12-15T14:21:19;44.40;;;17.27;;
23884;SDS011;12123;53.088;7.392;2022-12-15T14:23:47;39.25;;;18.83;;
23884;SDS011;12123;53.088;7.392;2022-12-15T14:26:37;36.08;;;16.63;;
23884;SDS011;12123;53.088;7.392;2022-12-15T14:29:07;63.92;;;22.95;;
23884;SDS011;12123;53.088;7.392;2022-12-15T14:31:37;52.72;;;22.70;;
23884;SDS011;12123;53.088;7.392;2022-12-15T14:34:07;40.70;;;20.45;;
23884;SDS011;12123;53.088;7.392;2022-12-15T14:36:36;33.15;;;17.75;;
23884;SDS011;12123;53.088;7.392;2022-12-15T14:39:06;40.80;;;19.55;;
23884;SDS011;12123;53.088;7.392;2022-12-15T14:41:39;40.72;;;19.77;;
23884;SDS011;12123;53.088;7.392;2022-12-15T14:44:26;39.78;;;19.50;;
23884;SDS011;12123;53.088;7.392;2022-12-15T14:47:04;40.83;;;20.42;;
23884;SDS011;12123;53.088;7.392;2022-12-15T14:49:41;41.40;;;19.95;;
23884;SDS011;12123;53.088;7.392;2022-12-15T14:54:55;41.25;;;20.58;;
23884;SDS011;12123;53.088;7.392;2022-12-15T14:57:24;41.97;;;21.13;;
23884;SDS011;12123;53.088;7.392;2022-12-15T14:59:52;36.58;;;19.38;;
23884;SDS011;12123;53.088;7.392;2022-12-15T15:02:27;43.35;;;18.27;;
23884;SDS011;12123;53.088;7.392;2022-12-15T15:05:02;42.42;;;20.23;;
23884;SDS011;12123;53.088;7.392;2022-12-15T15:07:31;48.55;;;22.95;;
23884;SDS011;12123;53.088;7.392;2022-12-15T15:09:58;44.38;;;21.48;;
23884;SDS011;12123;53.088;7.392;2022-12-15T15:12:45;47.70;;;23.15;;
23884;SDS011;12123;53.088;7.392;2022-12-15T15:15:16;37.20;;;20.33;;
23884;SDS011;12123;53.088;7.392;2022-12-15T15:17:50;38.22;;;19.88;;
23884;SDS011;12123;53.088;7.392;2022-12-15T15:23:00;36.03;;;19.50;;
23884;SDS011;12123;53.088;7.392;2022-12-15T15:30:28;42.10;;;21.23;;
23884;SDS011;12123;53.088;7.392;2022-12-15T15:33:06;37.25;;;20.88;;
23884;SDS011;12123;53.088;7.392;2022-12-15T15:35:34;37.80;;;21.50;;
23884;SDS011;12123;53.088;7.392;2022-12-15T15:38:14;43.20;;;22.15;;
23884;SDS011;12123;53.088;7.392;2022-12-15T15:40:47;41.63;;;23.05;;
23884;SDS011;12123;53.088;7.392;2022-12-15T15:43:14;37.22;;;20.50;;
23884;SDS011;12123;53.088;7.392;2022-12-15T15:45:43;43.10;;;22.38;;
23884;SDS011;12123;53.088;7.392;2022-12-15T15:48:14;38.30;;;21.30;;
23884;SDS011;12123;53.088;7.392;2022-12-15T15:50:43;43.20;;;24.33;;
23884;SDS011;12123;53.088;7.392;2022-12-15T15:53:16;39.88;;;22.20;;
23884;SDS011;12123;53.088;7.392;2022-12-15T15:55:45;47.67;;;23.23;;
23884;SDS011;12123;53.088;7.392;2022-12-15T15:58:13;46.88;;;22.45;;
23884;SDS011;12123;53.088;7.392;2022-12-15T16:00:40;39.22;;;21.25;;
23884;SDS011;12123;53.088;7.392;2022-12-15T16:03:08;47.25;;;24.95;;
23884;SDS011;12123;53.088;7.392;2022-12-15T16:05:36;43.72;;;21.95;;
23884;SDS011;12123;53.088;7.392;2022-12-15T16:08:03;48.45;;;23.88;;
23884;SDS011;12123;53.088;7.392;2022-12-15T16:10:31;44.58;;;24.65;;
23884;SDS011;12123;53.088;7.392;2022-12-15T16:12:58;43.17;;;22.90;;
23884;SDS011;12123;53.088;7.392;2022-12-15T16:15:29;54.17;;;24.98;;
23884;SDS011;12123;53.088;7.392;2022-12-15T16:17:59;43.72;;;22.20;;
23884;SDS011;12123;53.088;7.392;2022-12-15T16:20:27;41.58;;;22.20;;
23884;SDS011;12123;53.088;7.392;2022-12-15T16:22:58;39.65;;;22.15;;
23884;SDS011;12123;53.088;7.392;2022-12-15T16:27:58;47.72;;;23.52;;
23884;SDS011;12123;53.088;7.392;2022-12-15T16:30:28;52.50;;;26.63;;
23884;SDS011;12123;53.088;7.392;2022-12-15T16:32:56;56.47;;;26.67;;
23884;SDS011;12123;53.088;7.392;2022-12-15T16:35:23;55.42;;;25.70;;
23884;SDS011;12123;53.088;7.392;2022-12-15T16:37:50;54.25;;;27.88;;